createdAt,value
2022-11-30T00:01:48.729Z,99.90
2022-11-30T00:04:17.912Z,99.90
2022-11-30T00:06:47.052Z,99.90
2022-11-30T00:09:16.256Z,99.90
2022-11-30T00:11:48.655Z,99.90
2022-11-30T00:14:17.842Z,99.90
2022-11-30T00:16:49.946Z,99.90
2022-11-30T00:19:19.229Z,99.90
2022-11-30T00:21:48.564Z,99.90
2022-11-30T00:24:17.707Z,99.90
2022-11-30T00:26:46.849Z,99.90
2022-11-30T00:29:18.780Z,99.90
2022-11-30T00:31:50.697Z,99.90
2022-11-30T00:34:19.864Z,99.90
2022-11-30T00:36:49.027Z,99.90
2022-11-30T00:39:18.239Z,99.90
2022-11-30T00:41:47.444Z,99.90
2022-11-30T00:44:16.676Z,99.90
2022-11-30T00:46:50.336Z,99.90
2022-11-30T00:49:19.573Z,99.90
2022-11-30T00:51:48.773Z,99.90
2022-11-30T00:54:26.455Z,99.90
2022-11-30T00:56:55.682Z,99.90
2022-11-30T00:59:24.907Z,99.90
2022-11-30T01:02:02.132Z,99.90
2022-11-30T01:04:31.409Z,99.90
2022-11-30T01:07:01.356Z,99.90
2022-11-30T01:09:32.630Z,99.90
2022-11-30T01:12:07.709Z,99.90
2022-11-30T01:14:39.533Z,99.90
2022-11-30T01:17:13.698Z,99.90
2022-11-30T01:19:47.036Z,99.90
2022-11-30T01:22:18.100Z,99.90
2022-11-30T01:24:47.520Z,99.90
2022-11-30T01:27:16.905Z,99.90
2022-11-30T01:29:47.784Z,99.90
2022-11-30T01:32:19.113Z,99.90
2022-11-30T01:34:51.065Z,99.90
2022-11-30T01:37:41.455Z,99.90
2022-11-30T01:40:13.207Z,99.90
2022-11-30T01:42:50.267Z,99.90
2022-11-30T01:45:22.030Z,99.90
2022-11-30T01:48:01.868Z,99.90
2022-11-30T01:50:36.912Z,99.90
2022-11-30T01:53:11.842Z,99.90
2022-11-30T01:55:50.220Z,99.90
2022-11-30T01:58:26.743Z,99.90
2022-11-30T02:00:56.317Z,99.90
2022-11-30T02:03:37.134Z,99.90
2022-11-30T02:06:06.660Z,99.90
2022-11-30T02:08:36.189Z,99.90
2022-11-30T02:11:09.397Z,99.90
2022-11-30T02:14:11.962Z,99.90
2022-11-30T02:17:20.599Z,99.90
2022-11-30T02:20:16.720Z,99.90
2022-11-30T02:23:41.799Z,99.90
2022-11-30T02:26:55.917Z,99.90
2022-11-30T02:29:42.409Z,99.90
2022-11-30T02:33:01.511Z,99.90
2022-11-30T02:35:36.089Z,99.90
2022-11-30T02:38:07.245Z,99.90
2022-11-30T02:40:36.528Z,99.90
2022-11-30T02:43:08.238Z,99.90
2022-11-30T02:46:05.604Z,99.90
2022-11-30T02:49:07.181Z,99.90
2022-11-30T02:51:41.209Z,99.90
2022-11-30T02:54:11.257Z,99.90
2022-11-30T02:56:40.432Z,99.90
2022-11-30T02:59:09.664Z,99.90
2022-11-30T03:01:40.449Z,99.90
2022-11-30T03:04:09.761Z,99.90
2022-11-30T03:06:39.021Z,99.90
2022-11-30T03:09:08.317Z,99.90
2022-11-30T03:11:38.036Z,99.90
2022-11-30T03:14:07.459Z,99.90
2022-11-30T03:16:37.868Z,99.90
2022-11-30T03:19:07.201Z,99.90
2022-11-30T03:21:36.501Z,99.90
2022-11-30T03:24:06.087Z,99.90
2022-11-30T03:26:35.236Z,99.90
2022-11-30T03:29:04.593Z,99.90
2022-11-30T03:31:34.048Z,99.90
2022-11-30T03:34:03.834Z,99.90
2022-11-30T03:36:32.973Z,99.90
2022-11-30T03:39:02.441Z,99.90
2022-11-30T03:41:31.737Z,99.90
2022-11-30T03:44:01.056Z,99.90
2022-11-30T03:46:30.596Z,99.90
2022-11-30T03:48:59.851Z,99.90
2022-11-30T03:51:29.030Z,99.90
2022-11-30T03:53:58.321Z,99.90
2022-11-30T03:56:27.754Z,99.90
2022-11-30T03:58:57.195Z,99.90
2022-11-30T04:01:26.894Z,99.90
2022-11-30T04:03:56.151Z,99.90
2022-11-30T04:06:25.348Z,99.90
2022-11-30T04:08:54.609Z,99.90
2022-11-30T04:11:24.480Z,99.90
2022-11-30T04:13:53.607Z,99.90
2022-11-30T04:16:22.931Z,98.90
2022-11-30T04:18:52.153Z,98.90
2022-11-30T04:21:21.399Z,98.80
2022-11-30T04:23:50.619Z,98.30
2022-11-30T04:26:20.031Z,98.90
2022-11-30T04:28:49.597Z,98.80
2022-11-30T04:31:18.939Z,98.40
2022-11-30T04:33:48.105Z,98.40
2022-11-30T04:36:22.551Z,98.00
2022-11-30T04:38:51.883Z,98.00
2022-11-30T04:41:21.059Z,97.20
2022-11-30T04:43:50.256Z,97.30
2022-11-30T04:46:19.527Z,97.10
2022-11-30T04:48:48.755Z,97.40
2022-11-30T04:51:17.902Z,96.80
2022-11-30T04:53:47.037Z,97.00
2022-11-30T04:56:16.260Z,97.10
2022-11-30T04:58:45.450Z,96.50
2022-11-30T05:01:14.617Z,96.70
2022-11-30T05:03:43.819Z,96.80
2022-11-30T05:06:13.102Z,97.20
2022-11-30T05:08:42.228Z,96.50
2022-11-30T05:11:11.481Z,95.80
2022-11-30T05:13:40.842Z,95.70
2022-11-30T05:16:11.674Z,95.50
2022-11-30T05:18:40.892Z,95.30
2022-11-30T05:21:10.080Z,94.90
2022-11-30T05:23:39.240Z,95.10
2022-11-30T05:26:08.464Z,95.40
2022-11-30T05:28:38.351Z,95.60
2022-11-30T05:31:08.293Z,95.00
2022-11-30T05:33:37.506Z,94.30
2022-11-30T05:36:10.736Z,94.40
2022-11-30T05:38:40.294Z,94.00
2022-11-30T05:41:09.667Z,93.60
2022-11-30T05:43:38.924Z,93.70
2022-11-30T05:46:11.096Z,94.10
2022-11-30T05:48:40.761Z,94.20
2022-11-30T05:51:16.842Z,94.30
2022-11-30T05:53:49.747Z,94.10
2022-11-30T05:56:21.969Z,94.20
2022-11-30T05:58:51.197Z,94.50
2022-11-30T06:01:27.824Z,94.80
2022-11-30T06:03:57.591Z,94.60
2022-11-30T06:06:26.861Z,95.10
2022-11-30T06:08:56.564Z,94.90
2022-11-30T06:11:25.907Z,94.50
2022-11-30T06:13:55.092Z,94.70
2022-11-30T06:16:24.382Z,94.70
2022-11-30T06:18:53.673Z,94.70
2022-11-30T06:21:24.832Z,94.30
2022-11-30T06:23:54.617Z,94.50
2022-11-30T06:26:24.084Z,93.80
2022-11-30T06:28:56.045Z,93.70
2022-11-30T06:31:26.269Z,93.20
2022-11-30T06:33:59.830Z,93.00
2022-11-30T06:36:35.491Z,92.20
2022-11-30T06:39:06.637Z,92.60
2022-11-30T06:41:37.139Z,92.50
2022-11-30T06:44:14.818Z,92.70
2022-11-30T06:46:44.097Z,92.10
2022-11-30T06:49:13.231Z,92.40
2022-11-30T06:51:43.331Z,92.00
2022-11-30T06:54:12.721Z,91.90
2022-11-30T06:56:41.855Z,91.50
2022-11-30T06:59:11.301Z,91.30
2022-11-30T07:01:40.470Z,91.00
2022-11-30T07:04:10.222Z,90.90
2022-11-30T07:06:39.440Z,90.70
2022-11-30T07:09:08.647Z,91.60
2022-11-30T07:11:38.665Z,91.20
2022-11-30T07:14:07.873Z,90.80
2022-11-30T07:16:37.203Z,90.70
2022-11-30T07:19:06.408Z,90.80
2022-11-30T07:21:35.521Z,90.80
2022-11-30T07:24:22.764Z,90.90
2022-11-30T07:26:52.045Z,90.50
2022-11-30T07:29:21.282Z,90.40
2022-11-30T07:31:54.804Z,90.80
2022-11-30T07:34:24.460Z,91.00
2022-11-30T07:36:53.734Z,90.80
2022-11-30T07:39:22.989Z,90.60
2022-11-30T07:41:52.281Z,90.80
2022-11-30T07:44:21.443Z,91.10
2022-11-30T07:46:50.689Z,91.60
2022-11-30T07:49:20.169Z,91.50
2022-11-30T07:51:49.361Z,91.30
2022-11-30T07:54:18.679Z,91.30
2022-11-30T07:56:47.919Z,91.90
2022-11-30T07:59:17.294Z,91.80
2022-11-30T08:01:46.570Z,92.00
2022-11-30T08:04:16.082Z,92.00
2022-11-30T08:06:45.465Z,92.20
2022-11-30T08:09:20.312Z,92.60
2022-11-30T08:11:51.230Z,92.50
2022-11-30T08:14:20.438Z,91.50
2022-11-30T08:16:50.097Z,90.80
2022-11-30T08:19:19.403Z,90.80
2022-11-30T08:21:48.915Z,90.80
2022-11-30T08:24:18.309Z,90.90
2022-11-30T08:26:47.635Z,91.20
2022-11-30T08:29:16.854Z,90.80
2022-11-30T08:31:46.134Z,90.70
2022-11-30T08:34:16.033Z,91.20
2022-11-30T08:36:50.374Z,91.20
2022-11-30T08:39:21.299Z,91.00
2022-11-30T08:41:50.935Z,91.30
2022-11-30T08:44:20.149Z,91.20
2022-11-30T08:46:51.863Z,91.30
2022-11-30T08:49:23.744Z,91.30
2022-11-30T08:54:47.952Z,90.70
2022-11-30T08:57:22.849Z,90.20
2022-11-30T08:59:52.031Z,90.30
2022-11-30T09:02:21.832Z,90.00
2022-11-30T09:04:52.783Z,90.10
2022-11-30T09:07:22.074Z,89.30
2022-11-30T09:09:51.396Z,89.70
2022-11-30T09:12:21.907Z,88.80
2022-11-30T09:14:57.421Z,88.40
2022-11-30T09:17:27.969Z,88.00
2022-11-30T09:19:57.317Z,87.00
2022-11-30T09:22:26.952Z,86.70
2022-11-30T09:24:56.907Z,86.50
2022-11-30T09:27:31.249Z,86.90
2022-11-30T09:30:00.836Z,87.20
2022-11-30T09:32:31.054Z,87.60
2022-11-30T09:35:00.324Z,88.40
2022-11-30T09:37:29.614Z,89.30
2022-11-30T09:39:58.910Z,89.00
2022-11-30T09:43:23.997Z,89.20
2022-11-30T09:46:03.448Z,89.60
2022-11-30T09:49:00.923Z,89.80
2022-11-30T09:51:48.254Z,90.00
2022-11-30T09:54:24.436Z,90.20
2022-11-30T09:56:54.325Z,90.20
2022-11-30T09:59:33.823Z,90.40
2022-11-30T10:02:16.890Z,90.60
2022-11-30T10:04:50.066Z,90.80
2022-11-30T10:07:46.218Z,91.00
2022-11-30T10:10:44.370Z,91.20
2022-11-30T10:13:47.076Z,91.40
2022-11-30T10:16:53.802Z,91.50
2022-11-30T10:19:34.121Z,91.70
2022-11-30T10:22:27.143Z,91.90
2022-11-30T10:25:26.184Z,91.90
2022-11-30T10:28:12.733Z,92.10
2022-11-30T10:30:51.571Z,92.30
2022-11-30T10:33:37.020Z,92.40
2022-11-30T10:36:23.525Z,92.50
2022-11-30T10:39:01.230Z,92.70
2022-11-30T10:41:52.508Z,92.90
2022-11-30T10:44:40.652Z,93.00
2022-11-30T10:47:28.237Z,93.10
2022-11-30T10:49:57.767Z,93.40
2022-11-30T10:52:42.283Z,93.60
2022-11-30T10:55:31.855Z,93.60
2022-11-30T10:58:28.146Z,93.70
2022-11-30T11:01:11.411Z,93.80
2022-11-30T11:03:40.690Z,93.90
2022-11-30T11:06:21.806Z,94.10
2022-11-30T11:08:51.627Z,94.10
2022-11-30T11:12:06.178Z,94.20
2022-11-30T11:14:38.195Z,94.30
2022-11-30T11:17:25.197Z,94.60
2022-11-30T11:19:57.781Z,94.70
2022-11-30T11:22:32.423Z,94.90
2022-11-30T11:25:29.557Z,95.00
2022-11-30T11:28:24.011Z,95.10
2022-11-30T11:30:58.620Z,95.10
2022-11-30T11:33:31.683Z,95.30
2022-11-30T11:36:10.063Z,95.50
2022-11-30T11:38:49.492Z,95.50
2022-11-30T11:41:32.592Z,95.60
2022-11-30T11:44:10.805Z,95.70
2022-11-30T11:46:57.666Z,95.80
2022-11-30T11:49:32.914Z,96.10
2022-11-30T11:52:15.001Z,96.60
2022-11-30T11:54:57.948Z,96.70
2022-11-30T11:58:03.822Z,96.80
2022-11-30T12:00:34.256Z,96.80
2022-11-30T12:03:40.108Z,97.10
2022-11-30T12:06:20.237Z,97.10
2022-11-30T12:08:57.982Z,97.00
2022-11-30T12:11:48.624Z,97.10
2022-11-30T12:14:21.240Z,97.10
2022-11-30T12:17:19.817Z,97.30
2022-11-30T12:20:41.150Z,97.30
2022-11-30T12:23:35.281Z,97.50
2022-11-30T12:26:10.286Z,97.60
2022-11-30T12:29:19.717Z,97.80
2022-11-30T12:32:03.347Z,97.80
2022-11-30T12:35:12.427Z,98.20
2022-11-30T12:38:16.387Z,98.50
2022-11-30T12:41:11.923Z,98.40
2022-11-30T12:44:22.256Z,98.60
2022-11-30T12:47:10.078Z,98.80
2022-11-30T12:50:13.556Z,98.80
2022-11-30T12:53:33.096Z,99.00
2022-11-30T12:56:46.342Z,99.10
2022-11-30T13:00:14.170Z,99.20
2022-11-30T13:03:09.657Z,99.10
2022-11-30T13:05:52.639Z,98.80
2022-11-30T13:08:32.331Z,99.40
2022-11-30T13:11:12.704Z,99.60
2022-11-30T13:13:58.602Z,99.60
2022-11-30T13:16:32.321Z,99.60
2022-11-30T13:19:21.951Z,99.70
2022-11-30T13:22:06.189Z,99.70
2022-11-30T13:24:48.959Z,99.70
2022-11-30T13:27:44.319Z,99.90
2022-11-30T13:30:42.820Z,99.90
2022-11-30T13:33:36.851Z,99.90
2022-11-30T13:36:39.843Z,99.90
2022-11-30T13:39:26.824Z,99.90
2022-11-30T13:42:08.267Z,99.90
2022-11-30T13:44:46.198Z,99.90
2022-11-30T13:47:29.129Z,99.90
2022-11-30T13:50:33.615Z,99.90
2022-11-30T13:53:05.533Z,99.90
2022-11-30T13:55:44.019Z,99.90
2022-11-30T13:58:16.723Z,99.90
2022-11-30T14:01:42.968Z,99.90
2022-11-30T14:04:33.896Z,99.90
2022-11-30T14:07:03.521Z,99.90
2022-11-30T14:09:46.677Z,99.90
2022-11-30T14:12:38.227Z,99.90
2022-11-30T14:15:42.794Z,99.90
2022-11-30T14:18:12.276Z,99.90
2022-11-30T14:20:55.401Z,99.90
2022-11-30T14:23:56.496Z,99.90
2022-11-30T14:26:49.729Z,99.90
2022-11-30T14:29:24.989Z,99.90
2022-11-30T14:32:11.933Z,99.90
2022-11-30T14:34:53.697Z,99.90
2022-11-30T14:37:45.967Z,99.90
2022-11-30T14:40:22.810Z,99.90
2022-11-30T14:42:59.223Z,99.90
2022-11-30T14:45:35.208Z,99.90
2022-11-30T14:48:19.354Z,99.90
2022-11-30T14:50:56.539Z,99.90
2022-11-30T14:53:56.543Z,99.90
2022-11-30T14:56:49.715Z,99.90
2022-11-30T14:59:53.951Z,99.90
2022-11-30T15:02:29.704Z,99.90
2022-11-30T15:05:01.286Z,99.90
2022-11-30T15:07:31.362Z,99.90
2022-11-30T15:10:30.680Z,99.90
2022-11-30T15:13:03.934Z,99.90
2022-11-30T15:15:36.178Z,99.90
2022-11-30T15:18:17.630Z,99.90
2022-11-30T15:21:07.940Z,99.90
2022-11-30T15:23:37.403Z,99.90
2022-11-30T15:26:35.436Z,99.90
2022-11-30T15:29:22.976Z,99.90
2022-11-30T15:31:57.877Z,99.90
2022-11-30T15:34:29.871Z,99.90
2022-11-30T15:37:04.831Z,99.90
2022-11-30T15:39:37.139Z,99.90
2022-11-30T15:42:08.691Z,99.90
2022-11-30T15:44:48.633Z,99.90
2022-11-30T15:47:39.757Z,99.90
2022-11-30T15:50:30.196Z,99.90
2022-11-30T15:53:05.858Z,99.90
2022-11-30T15:55:50.944Z,99.90
2022-11-30T15:58:48.573Z,99.90
2022-11-30T16:01:26.055Z,99.90
2022-11-30T16:04:00.368Z,99.90
2022-11-30T16:06:46.913Z,99.90
2022-11-30T16:10:09.005Z,99.90
2022-11-30T16:12:39.008Z,99.90
2022-11-30T16:15:31.202Z,99.90
2022-11-30T16:18:20.117Z,99.90
2022-11-30T16:20:58.205Z,99.90
2022-11-30T16:23:31.632Z,99.90
2022-11-30T16:26:01.431Z,99.90
2022-11-30T16:28:30.660Z,99.90
2022-11-30T16:31:02.943Z,99.90
2022-11-30T16:33:32.133Z,99.90
2022-11-30T16:36:10.786Z,99.90
2022-11-30T16:38:39.966Z,99.90
2022-11-30T16:41:23.783Z,99.90
2022-11-30T16:43:56.771Z,99.90
2022-11-30T16:46:47.357Z,99.90
2022-11-30T16:49:16.419Z,99.90
2022-11-30T16:51:45.627Z,99.90
2022-11-30T16:54:18.093Z,99.90
2022-11-30T16:56:47.885Z,99.90
2022-11-30T16:59:17.339Z,99.90
2022-11-30T17:01:56.575Z,99.90
2022-11-30T17:04:30.551Z,99.90
2022-11-30T17:07:08.562Z,99.90
2022-11-30T17:09:37.787Z,99.90
2022-11-30T17:12:10.156Z,99.90
2022-11-30T17:14:41.798Z,99.90
2022-11-30T17:17:11.442Z,99.90
2022-11-30T17:19:40.564Z,99.90
2022-11-30T17:22:09.738Z,99.90
2022-11-30T17:24:38.834Z,99.90
2022-11-30T17:27:08.147Z,99.90
2022-11-30T17:29:37.392Z,99.90
2022-11-30T17:32:09.506Z,99.90
2022-11-30T17:34:38.769Z,99.90
2022-11-30T17:37:07.950Z,99.90
2022-11-30T17:39:37.441Z,99.90
2022-11-30T17:42:06.895Z,99.90
2022-11-30T17:44:36.008Z,99.90
2022-11-30T17:47:05.142Z,99.90
2022-11-30T17:49:34.185Z,99.90
2022-11-30T17:52:03.308Z,99.90
2022-11-30T17:54:32.349Z,99.90
2022-11-30T17:57:01.547Z,99.90
2022-11-30T17:59:30.804Z,99.90
2022-11-30T18:02:00.109Z,99.90
2022-11-30T18:04:29.215Z,99.90
2022-11-30T18:06:58.402Z,99.90
2022-11-30T18:09:27.816Z,99.90
2022-11-30T18:11:57.793Z,99.90
2022-11-30T18:14:27.044Z,99.90
2022-11-30T18:16:56.254Z,99.90
2022-11-30T18:19:25.533Z,99.90
2022-11-30T18:21:56.223Z,99.90
2022-11-30T18:24:25.889Z,99.90
2022-11-30T18:26:55.362Z,99.90
2022-11-30T18:29:24.566Z,99.90
2022-11-30T18:31:53.724Z,99.90
2022-11-30T18:34:24.095Z,99.90
2022-11-30T18:36:53.303Z,99.90
2022-11-30T18:39:22.569Z,99.90
2022-11-30T18:41:51.735Z,99.90
2022-11-30T18:44:20.992Z,99.90
2022-11-30T18:46:50.204Z,99.90
2022-11-30T18:49:22.020Z,99.90
2022-11-30T18:51:51.210Z,99.90
2022-11-30T18:54:20.346Z,99.90
2022-11-30T18:56:49.516Z,99.90
2022-11-30T18:59:19.065Z,99.90
2022-11-30T19:01:48.355Z,99.90
2022-11-30T19:04:17.952Z,99.90
2022-11-30T19:06:47.163Z,99.90
2022-11-30T19:09:17.652Z,99.90
2022-11-30T19:11:47.572Z,99.90
2022-11-30T19:14:18.889Z,99.90
2022-11-30T19:16:48.184Z,99.90
2022-11-30T19:19:17.429Z,99.90
2022-11-30T19:21:51.731Z,99.90
2022-11-30T19:24:20.955Z,99.90
2022-11-30T19:26:50.187Z,99.90
2022-11-30T19:29:19.451Z,99.90
2022-11-30T19:31:48.601Z,99.90
2022-11-30T19:34:17.750Z,99.90
2022-11-30T19:36:46.989Z,99.90
2022-11-30T19:39:16.326Z,99.90
2022-11-30T19:41:45.496Z,99.90
2022-11-30T19:44:16.587Z,99.90
2022-11-30T19:46:45.854Z,99.90
2022-11-30T19:49:15.064Z,99.90
2022-11-30T19:51:44.376Z,99.90
2022-11-30T19:54:13.579Z,99.90
2022-11-30T19:56:44.115Z,99.90
2022-11-30T19:59:13.465Z,99.90
2022-11-30T20:01:42.994Z,99.90
2022-11-30T20:04:12.395Z,99.90
2022-11-30T20:06:41.557Z,99.90
2022-11-30T20:09:12.972Z,99.90
2022-11-30T20:11:42.636Z,99.90
2022-11-30T20:14:17.993Z,99.90
2022-11-30T20:16:47.105Z,99.90
2022-11-30T20:19:18.273Z,99.90
2022-11-30T20:21:49.178Z,99.90
2022-11-30T20:24:18.294Z,99.90
2022-11-30T20:26:47.736Z,99.90
2022-11-30T20:29:19.271Z,99.90
2022-11-30T20:31:50.594Z,99.90
2022-11-30T20:34:19.916Z,99.90
2022-11-30T20:36:49.300Z,99.90
2022-11-30T20:39:18.551Z,99.90
2022-11-30T20:41:47.625Z,99.90
2022-11-30T20:44:17.353Z,99.90
2022-11-30T20:46:46.564Z,99.90
2022-11-30T20:49:22.473Z,99.90
2022-11-30T20:51:51.625Z,99.90
2022-11-30T20:54:21.785Z,99.90
2022-11-30T20:56:51.345Z,99.90
2022-11-30T20:59:24.477Z,99.90
2022-11-30T21:01:55.832Z,99.90
2022-11-30T21:04:28.266Z,99.90
2022-11-30T21:06:57.482Z,99.90
2022-11-30T21:09:26.590Z,99.90
2022-11-30T21:11:55.675Z,99.90
2022-11-30T21:14:25.518Z,99.90
2022-11-30T21:16:54.663Z,99.90
2022-11-30T21:19:23.805Z,99.90
2022-11-30T21:21:53.010Z,99.90
2022-11-30T21:24:22.126Z,99.90
2022-11-30T21:26:51.229Z,99.90
2022-11-30T21:29:20.423Z,99.90
2022-11-30T21:31:49.667Z,99.90
2022-11-30T21:34:19.353Z,99.90
2022-11-30T21:36:48.637Z,99.90
2022-11-30T21:39:18.327Z,99.90
2022-11-30T21:41:47.517Z,99.90
2022-11-30T21:44:18.467Z,99.90
2022-11-30T21:46:48.960Z,99.90
2022-11-30T21:49:18.348Z,99.90
2022-11-30T21:51:47.560Z,99.90
2022-11-30T21:54:16.670Z,99.90
2022-11-30T21:56:46.996Z,99.90
2022-11-30T21:59:16.717Z,99.90
2022-11-30T22:01:47.284Z,99.90
2022-11-30T22:04:17.705Z,99.90
2022-11-30T22:06:46.823Z,99.90
2022-11-30T22:09:18.171Z,99.90
2022-11-30T22:11:48.426Z,99.90
2022-11-30T22:14:18.635Z,99.90
2022-11-30T22:16:47.821Z,99.90
2022-11-30T22:19:18.815Z,99.90
2022-11-30T22:21:50.444Z,99.90
2022-11-30T22:24:20.159Z,99.90
2022-11-30T22:26:50.101Z,99.90
2022-11-30T22:29:23.581Z,99.90
2022-11-30T22:31:55.696Z,99.90
2022-11-30T22:34:24.874Z,99.90
2022-11-30T22:36:53.968Z,99.90
2022-11-30T22:39:24.118Z,99.90
2022-11-30T22:41:56.117Z,99.90
2022-11-30T22:44:27.186Z,99.90
2022-11-30T22:46:56.352Z,99.90
2022-11-30T22:49:25.640Z,99.90
2022-11-30T22:51:54.880Z,99.90
2022-11-30T22:54:23.937Z,99.90
2022-11-30T22:56:54.107Z,99.90
2022-11-30T22:59:23.194Z,99.90
2022-11-30T23:01:52.564Z,99.90
2022-11-30T23:04:26.092Z,99.90
2022-11-30T23:06:55.658Z,99.90
2022-11-30T23:09:28.490Z,99.90
2022-11-30T23:11:57.917Z,99.90
2022-11-30T23:14:27.123Z,99.90
2022-11-30T23:16:56.217Z,99.90
2022-11-30T23:19:25.245Z,99.90
2022-11-30T23:21:54.377Z,99.90
2022-11-30T23:24:24.817Z,99.90
2022-11-30T23:26:54.617Z,99.90
2022-11-30T23:29:23.731Z,99.90
2022-11-30T23:31:52.998Z,99.90
2022-11-30T23:34:23.662Z,99.90
2022-11-30T23:36:53.093Z,99.90
2022-11-30T23:39:24.800Z,99.90
2022-11-30T23:41:53.885Z,99.90
2022-11-30T23:44:22.977Z,99.90
2022-11-30T23:46:52.204Z,99.90
2022-11-30T23:49:21.311Z,99.90
2022-11-30T23:51:50.396Z,99.90
2022-11-30T23:54:19.602Z,99.90
2022-11-30T23:56:50.936Z,99.90
2022-11-30T23:59:20.073Z,99.90
